Home > Products > Valid Products > TAF

000
FTUS43 KFGF 210100 AAA
TAFFAR
TAF AMD
KFAR 210137Z 2102/2124 18014KT 5SM BR OVC007
      TEMPO 2102/2103 3SM -SN=



000
FTUS43 KFGF 210100 AAA
TAFGFK
TAF AMD
KGFK 210136Z 2102/2124 17010KT 4SM -SN BR OVC006
     FM210300 18008KT 5SM BR OVC006
     FM211600 17013KT 5SM BR OVC009=



000
FTUS43 KFGF 202300
TAFGFK
TAF
KGFK 202323Z 2100/2124 17010KT 4SM BR OVC004
     FM210500 18008KT 2SM BR OVC004
     FM211600 17013KT 5SM BR OVC009=



000
FTUS43 KFGF 202300
TAFFAR
TAF
KFAR 202323Z 2100/2124 18014KT 5SM BR OVC007=



000
FTUS43 KFGF 202100 AAA
TAFGFK
TAF AMD
KGFK 202115Z 2021/2118 18008KT 1SM BR OVC002
      TEMPO 2021/2024 3SM BR OVC004
     FM210100 18008KT 6SM BR OVC004
     FM211000 17009KT 5SM BR OVC009=



000
FTUS43 KFGF 201700
TAFFAR
TAF
KFAR 201728Z 2018/2118 18011KT 5SM BR OVC007
      TEMPO 2018/2020 2SM BR
     FM210100 16010KT P6SM OVC012=



000
FTUS43 KFGF 201700
TAFGFK
TAF
KGFK 201728Z 2018/2118 20008KT 1SM BR OVC004
      TEMPO 2018/2020 3SM BR OVC006
     FM202000 18008KT 4SM BR OVC006
     FM210100 18008KT 6SM BR OVC004
     FM211000 17009KT 5SM BR OVC009=



000
FTUS43 KFGF 201100
TAFGFK
TAF
KGFK 201121Z 2012/2112 20006KT 4SM BR OVC006
      TEMPO 2013/2016 1SM BR OVC004
     FM202000 18008KT P6SM OVC012=



000
FTUS43 KFGF 201100
TAFFAR
TAF
KFAR 201121Z 2012/2112 18007KT 5SM BR OVC007
      TEMPO 2013/2015 2SM BR
     FM201800 16010KT P6SM OVC012=



000
FTUS43 KFGF 200500
TAFFAR
TAF
KFAR 200522Z 2006/2106 18006KT P6SM OVC010
      TEMPO 2008/2011 2SM BR OVC006
     FM201100 VRB02KT 2SM BR OVC003
      TEMPO 2011/2014 1SM BR
     FM202000 16007KT P6SM OVC008=



000
FTUS43 KFGF 200500
TAFGFK
TAF
KGFK 200522Z 2006/2106 16005KT 5SM BR OVC011
      TEMPO 2007/2010 2SM BR OVC006
     FM201000 VRB02KT 2SM BR OVC003
      TEMPO 2010/2014 3/4SM BR
     FM202000 16007KT P6SM OVC008=



000
FTUS43 KFGF 192300
TAFFAR
TAF
KFAR 192323Z 2000/2024 16009KT 4SM BR OVC007
     FM200600 17005KT 1 1/2SM BR OVC003
     FM202000 16007KT P6SM OVC008=



000
FTUS43 KFGF 192300
TAFGFK
TAF
KGFK 192323Z 2000/2024 16005KT 1 1/2SM BR OVC003
      TEMPO 2006/2010 1/2SM FG
     FM202000 16007KT P6SM OVC008=



000
FTUS43 KFGF 192100 AAA
TAFFAR
TAF AMD
KFAR 192120Z 1921/2018 16009KT 4SM BR BKN010
     FM200100 19007KT 4SM BR OVC008
     FM200400 18004KT 3SM BR OVC006=



000
FTUS43 KFGF 192000 AAA
TAFGFK
TAF AMD
KGFK 192019Z 1920/2018 16009KT 3SM BR OVC005
      TEMPO 1920/1922 3/4SM -FZDZ BR
     FM192200 16010KT 4SM BR OVC004
     FM201400 19007KT 5SM BR OVC008=



000
FTUS43 KFGF 191700
TAFFAR
TAF
KFAR 191720Z 1918/2018 16012KT 3SM BR OVC006
     FM192000 16009KT 5SM BR OVC008
     FM200100 19007KT 4SM BR OVC004=



000
FTUS43 KFGF 191700
TAFGFK
TAF
KGFK 191720Z 1918/2018 16009KT 3SM BR OVC005
      TEMPO 1918/1922 1SM -FZDZ BR
     FM192200 16010KT 4SM BR OVC004
     FM201400 19007KT 5SM BR OVC008=



000
FTUS43 KFGF 191500 AAA
TAFGFK
TAF AMD
KGFK 191545Z 1916/2012 16010KT 5SM BR OVC007
      TEMPO 1916/1918 1 1/2SM -FZDZ BR
     FM191800 16010KT P6SM OVC012=



000
FTUS43 KFGF 191100
TAFFAR
TAF
KFAR 191120Z 1912/2012 16010KT 4SM BR OVC006
      TEMPO 1912/1915 2SM BR
     FM191800 16010KT P6SM OVC012=



000
FTUS43 KFGF 191100
TAFGFK
TAF
KGFK 191120Z 1912/2012 16010KT 5SM BR OVC007
      TEMPO 1912/1915 2SM BR
     FM191800 16010KT P6SM OVC012=



000
FTUS43 KFGF 190500
TAFGFK
TAF
KGFK 190521Z 1906/2006 17009KT P6SM OVC015
      TEMPO 1910/1914 5SM -SN BKN007=



000
FTUS43 KFGF 190500
TAFFAR
TAF
KFAR 190521Z 1906/2006 16009KT P6SM OVC015
      TEMPO 1910/1914 5SM -SN BKN007=



000
FTUS43 KFGF 182300
TAFFAR
TAF
KFAR 182322Z 1900/1924 16010KT P6SM OVC050
     FM190100 16009KT P6SM OVC015=



000
FTUS43 KFGF 182300
TAFGFK
TAF
KGFK 182322Z 1900/1924 16007KT P6SM OVC050
     FM190200 17009KT P6SM OVC015=



000
FTUS43 KFGF 181700
TAFGFK
TAF
KGFK 181728Z 1818/1918 16007KT P6SM BKN110 OVC170
     FM190200 17009KT P6SM OVC015=



000
FTUS43 KFGF 181700
TAFFAR
TAF
KFAR 181728Z 1818/1918 16010KT P6SM OVC070
     FM190100 16009KT P6SM OVC015
     FM191500 16010KT P6SM OVC009=



000
FTUS43 KFGF 181100
TAFFAR
TAF
KFAR 181120Z 1812/1912 VRB03KT P6SM FEW200
     FM181900 15008KT P6SM BKN100
     FM190200 17010KT P6SM BKN015=



000
FTUS43 KFGF 181100
TAFGFK
TAF
KGFK 181120Z 1812/1912 VRB03KT P6SM FEW200
     FM181900 16007KT P6SM BKN100
     FM190200 17010KT P6SM BKN015=



000
FTUS43 KFGF 180500
TAFGFK
TAF
KGFK 180522Z 1806/1906 VRB02KT P6SM SKC
     FM182100 16007KT P6SM BKN100
     FM190500 17010KT P6SM BKN030=



000
FTUS43 KFGF 180500
TAFFAR
TAF
KFAR 180522Z 1806/1906 VRB02KT P6SM SKC
     FM182100 15008KT P6SM BKN100
     FM190500 17010KT P6SM BKN030=



    US Dept of Commerce
    National Oceanic and Atmospheric Administration
    National Weather Service
    1325 East West Highway
    Silver Spring, MD 20910
    Page Author: NWS Internet Services Team
Disclaimer
Information Quality
Credits
Glossary
Privacy Policy
Freedom of Information Act (FOIA)
About Us
Career Opportunities